AirNav   Pilot Hours Calculator
 
 1274 users online  

27II Fort Benjamin Harrison Hospital Heliport
Indianapolis, Indiana, USA

GOING TO INDIANAPOLIS?


FAA INFORMATION EFFECTIVE 25 MARCH 2021

Location

FAA Identifier: 27II
Lat/Long: 39-51-54.1420N 085-59-51.9380W
39-51.902367N 085-59.865633W
39.8650394,-85.9977606
(estimated)
Elevation: 860 ft. / 262 m (estimated)
Variation: 02W (1985)
From city: 19 miles E of INDIANAPOLIS, IN
Time zone: UTC -4 (UTC -5 during Standard Time)
Zip code: 46216

Heliport Operations

Heliport use: Private use. Permission required prior to landing
Activation date: 02/1987
Control tower: no
ARTCC: INDIANAPOLIS CENTER
FSS: TERRE HAUTE FLIGHT SERVICE STATION
ADDNL FSS LOCAL PHONE CALL 317-542-4524; AFT DUTY HRS 317-542-4541.
Attendance: UNATNDD
Segmented circle: no

Heliport Communications

WX AWOS-3 at UMP (5 nm NW): 119.375 (317-842-3911)
WX AWOS-3 at MQJ (5 nm E): 124.175 (317-335-3037)
WX AWOS-3 at 8A4 (9 nm SW): 118.250 (317-955-3160)
WX ASOS at EYE (14 nm W): 121.575 (317-329-1754)
WX AWOS-3P at HFY (15 nm S): 118.525 (317-882-5862)
WX AWOS-3PT at TYQ (15 nm NW): 120.725 (317-769-3154)
WX ASOS at IND (16 nm SW): PHONE 317-241-0348
WX ASOS at GEZ (19 nm SE): 121.55 (317-398-0246)

Nearby radio navigation aids

VOR radial/distance  VOR name  Freq  Var
SHBr329/16.1SHELBYVILLE VOR/DME112.0001E
VHPr079/17.3BRICKYARD VORTAC116.3001E
MIEr234/35.6MUNCIE VOR/DME114.4003W
OKKr181/39.9KOKOMO VORTAC113.5005W

 
NDB name  Hdg/Dist  Freq  Var  ID
METROPOLITAN154/5.033803WUMP ..- -- .--.
NEW CASTLE274/31.338506WUWL ..- .-- .-..

Heliport Services

Runway Information

Helipad H1

Dimensions: 80 x 80 ft. / 24 x 24 m
Surface: concrete
Traffic pattern: leftleft

Heliport Ownership and Management from official FAA records

Ownership: U.S. Army
Owner: US ARMY
U.S. SOLDIER SUPPORT CENTER
FT HARRISON, IN 46216-5000
Phone 317-542-4524
Manager: U.S. SOLDIER SUPPORT CENTER
ATTN: AT2I-CG-S
FT HARRISON, IN 46216-5000
Phone 317-542-4524

Additional Remarks

A52-H1 75' BLDG 50' S.
FOR CD CTC INDIANAPOLIS APCH AT 317-227-5743.

Instrument Procedures

There are no published instrument procedures at 27II.

Some nearby airports with instrument procedures:

KUMP - Indianapolis Metro Airport (5 nm NW)
KMQJ - Indianapolis Regional Airport (5 nm E)
8A4 - Indianapolis Downtown Heliport (9 nm SW)
KEYE - Eagle Creek Airpark (14 nm W)
KHFY - Indy South Greenwood Airport (15 nm S)
KTYQ - IndianapolisExecutive Airport (15 nm NW)
KIND - Indianapolis International Airport (16 nm SW)
KGEZ - Shelbyville Municipal Airport (19 nm SE)
 
Loc | Ops | Rwys | IFR | FBO | Links
Com | Nav | Svcs | Stats | Notes
Area around 27II (Fort Benjamin Harrison Hospital Heliport)
 
Road maps at: MapQuest Bing Google
 
Aerial photo
No photo
 
Sectional chart

 
Airport distance calculator
Flying to Fort Benjamin Harrison Hospital Heliport? Find the distance to fly.

From to 27II

Sunrise and sunset
Times for 17-Apr-2021
 Local
(UTC-4)
 Zulu
(UTC)
Morning civil twilight06:3610:36
Sunrise07:0411:04
Sunset20:2300:23
Evening civil twilight20:5100:51

Current date and time
Zulu (UTC)  17-Apr-2021 14:38:56
Local (UTC-4)  17-Apr-2021 10:38:56
 
METAR
KMQJ 
5nm E 
171415Z AUTO 00000KT 10SM SCT050 BKN070 OVC085 07/04 A2993 RMK AO1
KEYE 
14nm W 
171353Z AUTO 31005KT 10SM OVC075 07/01 A2992 RMK AO2 RAB1254E04 SLP134 P0000 T00720011 $
KHFY 
15nm S 
171415Z AUTO 00000KT 10SM BKN050 OVC070 08/03 A2993 RMK AO2 T00820027
KTYQ 
15nm NW 
171415Z AUTO 35003KT 10SM BKN100 06/02 A2993 RMK AO2 T00600019
KIND 
16nm SW 
171354Z 32006KT 10SM BKN050 OVC070 08/02 A2993 RMK AO2 SLP135 T00830017
KGEZ 
19nm SE 
171353Z AUTO 34006KT 10SM OVC065 09/03 A2992 RMK AO2 SLP132 T00890028
TAF
KIND 
16nm SW 
171120Z 1712/1818 VRB03KT P6SM OVC120 FM171600 31007KT P6SM BKN080 FM180200 32005KT P6SM SCT150 BKN250
NOTAMs
Click for the latest NOTAMs
NOTAMs are issued by the DoD/FAA and will open in a separate window not controlled by AirNav.

 

 
 

Would you like to see your business listed on this page?

 If your business provides an interesting product or service to pilots, flight crews, aircraft, or users of the Fort Benjamin Harrison Hospital Heliport, you should consider listing it here.  To start the listing process, click on the button below
 
Add a business
 

Other Pages about Fort Benjamin Harrison Hospital Heliport

Update a link
 
Copyright © AirNav, LLC. All rights reserved. Privacy Policy  Contact